Time;durP1;ratioP1;P1;durP2;ratioP2;P2;SDS_P1;SDS_P2;PMS_P1;PMS_P2;Temp;Humidity;BMP_temperature;BMP_pressure;BME280_temperature;BME280_humidity;BME280_pressure;Samples;Min_cycle;Max_cycle;Signal;HPM_P1;HPM_P2
2024/03/10 00:01:01;;;;;;;15.90;7.68;;;8.20;99.90;;;;;;4902420;29;20128;-77
2024/03/10 00:03:30;;;;;;;14.32;6.75;;;8.20;99.90;;;;;;4904586;29;20079;-78
2024/03/10 00:05:59;;;;;;;13.70;6.18;;;8.20;99.90;;;;;;4889519;29;20096;-78
2024/03/10 00:08:29;;;;;;;12.88;6.15;;;8.20;99.90;;;;;;4888628;29;20155;-77
2024/03/10 00:10:57;;;;;;;15.32;6.93;;;8.20;99.90;;;;;;4893199;29;20063;-77
2024/03/10 00:13:26;;;;;;;15.68;7.15;;;8.20;99.90;;;;;;4895033;29;20517;-78
2024/03/10 00:15:55;;;;;;;16.17;7.45;;;8.10;99.90;;;;;;4904028;29;20049;-78
2024/03/10 00:18:23;;;;;;;12.65;6.10;;;8.20;99.90;;;;;;4892135;29;20068;-77
2024/03/10 00:20:54;;;;;;;15.10;6.57;;;8.10;99.90;;;;;;4889030;29;20049;-76
2024/03/10 00:23:23;;;;;;;20.40;7.78;;;8.10;99.90;;;;;;4905412;29;20052;-79
2024/03/10 00:25:55;;;;;;;15.93;6.43;;;8.10;99.90;;;;;;4887861;29;20057;-78
2024/03/10 00:28:23;;;;;;;15.07;7.30;;;8.10;99.90;;;;;;4904621;29;20060;-78
2024/03/10 00:30:52;;;;;;;16.05;7.45;;;8.10;99.90;;;;;;4901276;29;20421;-76
2024/03/10 00:33:20;;;;;;;16.42;7.80;;;8.10;99.90;;;;;;4904871;29;20101;-76
2024/03/10 00:35:52;;;;;;;14.30;7.25;;;8.10;99.90;;;;;;4904475;29;20051;-80
2024/03/10 00:38:20;;;;;;;18.00;8.23;;;8.10;99.90;;;;;;4890391;29;20052;-76
2024/03/10 00:40:49;;;;;;;15.52;7.25;;;8.10;99.90;;;;;;4887076;29;21454;-77
2024/03/10 00:43:18;;;;;;;15.98;8.13;;;8.10;99.90;;;;;;4891596;29;20059;-81
2024/03/10 00:45:49;;;;;;;16.10;7.85;;;8.00;99.90;;;;;;4889715;29;20041;-78
2024/03/10 00:48:18;;;;;;;15.73;7.30;;;8.00;99.90;;;;;;4887771;29;20744;-77
2024/03/10 00:50:47;;;;;;;16.17;7.75;;;8.00;99.90;;;;;;4890067;29;20049;-77
2024/03/10 00:53:16;;;;;;;14.98;7.65;;;8.00;99.90;;;;;;4901655;29;20052;-77
2024/03/10 00:55:44;;;;;;;17.27;7.82;;;8.00;99.90;;;;;;4899187;29;20119;-77
2024/03/10 00:58:13;;;;;;;15.80;7.57;;;8.00;99.90;;;;;;4902004;29;20209;-80
2024/03/10 01:00:43;;;;;;;14.98;7.07;;;7.90;99.90;;;;;;4896013;29;20059;-78
2024/03/10 01:03:12;;;;;;;15.18;7.03;;;7.90;99.90;;;;;;4881886;29;20135;-79
2024/03/10 01:05:40;;;;;;;14.30;6.72;;;7.90;99.90;;;;;;4879325;29;20056;-77
2024/03/10 01:08:10;;;;;;;18.42;8.10;;;7.50;99.90;;;;;;4880005;29;20143;-79
2024/03/10 01:10:39;;;;;;;14.98;7.68;;;7.80;99.90;;;;;;4879765;29;20060;-77
2024/03/10 01:13:07;;;;;;;15.70;7.75;;;7.80;99.90;;;;;;4881741;29;20049;-77
2024/03/10 01:15:36;;;;;;;14.02;7.45;;;7.70;99.90;;;;;;4885234;29;20120;-78
2024/03/10 01:18:06;;;;;;;14.68;7.22;;;7.70;99.90;;;;;;4902770;29;20045;-78
2024/03/10 01:20:34;;;;;;;16.35;8.05;;;7.80;99.90;;;;;;4887472;29;20057;-78
2024/03/10 01:23:04;;;;;;;17.67;7.80;;;7.80;99.90;;;;;;4890870;29;20075;-77
2024/03/10 01:25:32;;;;;;;16.88;7.85;;;7.70;99.90;;;;;;4895401;29;20060;-77
2024/03/10 01:28:01;;;;;;;17.75;8.45;;;7.80;99.90;;;;;;4891012;29;20059;-78
2024/03/10 01:30:29;;;;;;;16.52;7.70;;;7.80;99.90;;;;;;4892757;29;20135;-79
2024/03/10 01:32:58;;;;;;;15.82;7.85;;;7.80;99.90;;;;;;4890815;29;20051;-77
2024/03/10 01:35:29;;;;;;;16.05;7.88;;;7.80;99.90;;;;;;4911036;29;20087;-77
2024/03/10 01:37:58;;;;;;;15.00;7.30;;;7.80;99.90;;;;;;4889368;29;20057;-77
2024/03/10 01:40:26;;;;;;;14.18;7.43;;;7.90;99.90;;;;;;4891000;29;20546;-81
2024/03/10 01:42:55;;;;;;;15.35;7.28;;;7.80;99.90;;;;;;4891182;29;20044;-79
2024/03/10 01:45:24;;;;;;;17.33;7.82;;;7.80;99.90;;;;;;4904690;29;20151;-78
2024/03/10 01:47:55;;;;;;;15.68;7.78;;;7.80;99.90;;;;;;4899656;29;20469;-78
2024/03/10 01:50:24;;;;;;;16.73;7.78;;;7.80;99.90;;;;;;4898468;29;20531;-76
2024/03/10 01:52:55;;;;;;;15.90;7.65;;;7.80;99.90;;;;;;4889934;29;20045;-77
2024/03/10 01:55:24;;;;;;;16.00;7.28;;;7.80;99.90;;;;;;4902820;29;20090;-79
2024/03/10 01:57:53;;;;;;;17.50;8.35;;;7.80;99.90;;;;;;4887760;29;20053;-79
2024/03/10 02:00:22;;;;;;;14.82;6.63;;;7.80;99.90;;;;;;4894055;29;20061;-79
2024/03/10 02:02:51;;;;;;;16.00;7.63;;;7.80;99.90;;;;;;4893036;29;20040;-79
2024/03/10 02:05:20;;;;;;;18.00;7.63;;;7.80;99.90;;;;;;4903369;29;20432;-79
2024/03/10 02:07:48;;;;;;;15.48;6.63;;;7.80;99.90;;;;;;4889554;29;20088;-79
2024/03/10 02:10:18;;;;;;;18.63;7.82;;;7.80;99.90;;;;;;4905361;29;20053;-77
2024/03/10 02:12:47;;;;;;;16.35;7.55;;;7.70;99.90;;;;;;4890334;29;20132;-77
2024/03/10 02:15:21;;;;;;;17.13;7.93;;;7.80;99.90;;;;;;4887366;29;20139;-77
2024/03/10 02:17:50;;;;;;;19.00;7.95;;;7.80;99.90;;;;;;4901488;29;20049;-78
2024/03/10 02:20:20;;;;;;;16.08;7.82;;;7.80;99.90;;;;;;4891702;29;20053;-78
2024/03/10 02:22:50;;;;;;;19.42;7.97;;;7.80;99.90;;;;;;4892323;29;20128;-81
2024/03/10 02:25:24;;;;;;;19.27;8.98;;;7.80;99.90;;;;;;4893039;29;20063;-78
2024/03/10 02:27:54;;;;;;;19.70;7.97;;;7.80;99.90;;;;;;4893316;29;20040;-78
2024/03/10 02:30:31;;;;;;;17.63;8.45;;;7.80;99.90;;;;;;4897587;29;21411;-80
2024/03/10 02:47:15;;;;;;;16.17;8.02;;;7.70;99.90;;;;;;4903985;29;20053;-82
2024/03/10 02:49:44;;;;;;;15.73;7.43;;;7.70;99.90;;;;;;4907413;29;20104;-77
2024/03/10 02:52:13;;;;;;;17.60;8.23;;;7.70;99.90;;;;;;4889798;29;20032;-78
2024/03/10 02:54:42;;;;;;;18.08;9.02;;;7.70;99.90;;;;;;4893145;29;20060;-77
2024/03/10 02:57:10;;;;;;;18.13;8.80;;;7.70;99.90;;;;;;4901954;29;20096;-78
2024/03/10 02:59:40;;;;;;;17.85;8.02;;;7.70;99.90;;;;;;4892635;29;20406;-76
2024/03/10 03:02:09;;;;;;;18.17;8.25;;;7.70;99.90;;;;;;4906455;29;20144;-77
2024/03/10 03:04:39;;;;;;;15.75;8.40;;;7.70;99.90;;;;;;4901228;29;20075;-77
2024/03/10 03:07:08;;;;;;;18.90;8.68;;;7.70;99.90;;;;;;4906988;29;20140;-79
2024/03/10 03:09:38;;;;;;;18.17;8.00;;;7.60;99.90;;;;;;4906656;29;20504;-78
2024/03/10 03:12:06;;;;;;;19.00;9.15;;;7.60;99.90;;;;;;4890199;29;20048;-79
2024/03/10 03:14:36;;;;;;;17.42;8.27;;;7.60;99.90;;;;;;4891826;29;20105;-78
2024/03/10 03:17:06;;;;;;;16.75;7.95;;;7.70;99.90;;;;;;4894650;29;20080;-78
2024/03/10 03:19:36;;;;;;;16.98;8.20;;;7.70;99.90;;;;;;4905785;29;20076;-78
2024/03/10 03:22:06;;;;;;;17.90;8.18;;;7.70;99.90;;;;;;4909394;29;20057;-76
2024/03/10 03:24:36;;;;;;;19.33;8.85;;;7.70;99.90;;;;;;4892557;29;20067;-77
2024/03/10 03:27:05;;;;;;;17.45;8.32;;;7.70;99.90;;;;;;4888848;29;20051;-78
2024/03/10 03:29:33;;;;;;;22.90;8.63;;;7.70;99.90;;;;;;4907310;29;20057;-77
2024/03/10 03:32:02;;;;;;;15.88;8.00;;;7.60;99.90;;;;;;4905538;29;20112;-78
2024/03/10 03:34:33;;;;;;;18.58;8.50;;;7.70;99.90;;;;;;4894741;29;20158;-78
2024/03/10 03:37:02;;;;;;;20.33;9.05;;;7.70;99.90;;;;;;4900483;29;20049;-78
2024/03/10 03:39:31;;;;;;;18.77;7.90;;;7.60;99.90;;;;;;4904990;29;20118;-77
2024/03/10 03:41:59;;;;;;;17.38;8.25;;;7.60;99.90;;;;;;4903660;29;20049;-77
2024/03/10 03:44:28;;;;;;;17.05;7.50;;;7.60;99.90;;;;;;4889775;29;20072;-78
2024/03/10 03:46:58;;;;;;;14.73;6.78;;;7.60;99.90;;;;;;4899222;29;20056;-78
2024/03/10 03:49:28;;;;;;;18.38;8.45;;;7.60;99.90;;;;;;4889177;29;20059;-77
2024/03/10 03:51:58;;;;;;;20.10;8.50;;;7.60;99.90;;;;;;4891430;29;20044;-79
2024/03/10 03:54:26;;;;;;;18.70;8.57;;;7.60;99.90;;;;;;4889406;29;20064;-78
2024/03/10 03:56:56;;;;;;;17.33;8.45;;;7.50;99.90;;;;;;4902033;29;20041;-76
2024/03/10 03:59:25;;;;;;;18.33;7.80;;;7.50;99.90;;;;;;4902695;29;20056;-78
2024/03/10 04:01:53;;;;;;;18.67;8.48;;;7.50;99.90;;;;;;4886451;29;20048;-77
2024/03/10 04:04:22;;;;;;;18.10;8.43;;;7.60;99.90;;;;;;4875613;29;20051;-80
2024/03/10 04:06:51;;;;;;;17.50;8.02;;;7.50;99.90;;;;;;4894933;29;20064;-80
2024/03/10 04:09:24;;;;;;;19.53;7.83;;;7.60;99.90;;;;;;4890672;29;20053;-80
2024/03/10 04:11:53;;;;;;;17.67;8.25;;;7.50;99.90;;;;;;4906213;29;20803;-79
2024/03/10 04:14:22;;;;;;;22.27;8.88;;;7.50;99.90;;;;;;4898532;29;20049;-81
2024/03/10 04:16:51;;;;;;;17.75;8.23;;;7.50;99.90;;;;;;4902605;29;20116;-77
2024/03/10 04:19:20;;;;;;;16.42;8.23;;;7.50;99.90;;;;;;4893869;29;20401;-77
2024/03/10 04:21:48;;;;;;;16.23;6.88;;;7.40;99.90;;;;;;4906886;29;21535;-76
2024/03/10 04:24:21;;;;;;;14.88;6.95;;;7.50;99.90;;;;;;4906367;29;20516;-77
2024/03/10 04:26:51;;;;;;;;;;;7.40;99.90;;;;;;4902389;29;20128;-75
2024/03/10 04:29:26;;;;;;;16.30;7.47;;;7.50;99.90;;;;;;4899335;29;19924;-77
2024/03/10 04:31:54;;;;;;;21.70;8.75;;;7.40;99.90;;;;;;4888813;29;20428;-75
2024/03/10 04:34:23;;;;;;;17.90;7.63;;;7.40;99.90;;;;;;4901009;29;20059;-76
2024/03/10 04:36:51;;;;;;;16.15;8.25;;;7.40;99.90;;;;;;4903467;29;20060;-76
2024/03/10 04:39:21;;;;;;;18.35;8.45;;;7.40;99.90;;;;;;4885673;29;20057;-76
2024/03/10 04:41:53;;;;;;;16.67;6.47;;;7.40;99.90;;;;;;4905885;29;20057;-76
2024/03/10 04:44:22;;;;;;;;;;;7.40;99.90;;;;;;4884791;29;20045;-77
2024/03/10 04:46:50;;;;;;;20.70;8.30;;;7.40;99.90;;;;;;4892541;29;19928;-77
2024/03/10 04:49:20;;;;;;;21.48;9.70;;;7.40;99.90;;;;;;4902548;29;20416;-77
2024/03/10 04:51:51;;;;;;;17.60;7.85;;;7.40;99.90;;;;;;4890078;29;20059;-77
2024/03/10 04:54:20;;;;;;;18.50;8.85;;;7.40;99.90;;;;;;4889869;29;20493;-76
2024/03/10 04:56:49;;;;;;;18.83;9.18;;;7.40;99.90;;;;;;4897358;29;20096;-79
2024/03/10 04:59:21;;;;;;;14.52;7.25;;;7.40;99.90;;;;;;4882905;29;20063;-76
2024/03/10 05:01:53;;;;;;;;;;;7.40;99.90;;;;;;4895088;29;20072;-77
2024/03/10 05:04:22;;;;;;;18.60;7.82;;;7.40;99.90;;;;;;4886482;29;19950;-77
2024/03/10 05:06:51;;;;;;;16.20;8.52;;;7.50;99.90;;;;;;4885189;29;20069;-77
2024/03/10 05:09:19;;;;;;;18.70;8.43;;;7.40;99.90;;;;;;4898451;29;20052;-78
2024/03/10 05:11:49;;;;;;;17.10;8.68;;;7.50;99.90;;;;;;4901893;29;20053;-77
2024/03/10 05:14:19;;;;;;;20.00;8.65;;;7.40;99.90;;;;;;4889871;29;20135;-80
2024/03/10 05:16:49;;;;;;;18.02;8.18;;;7.50;99.90;;;;;;4893178;29;20064;-77
2024/03/10 05:19:18;;;;;;;18.70;8.68;;;7.40;99.90;;;;;;4891743;29;20140;-79
2024/03/10 05:21:49;;;;;;;20.50;8.98;;;7.40;99.90;;;;;;4891096;29;20132;-78
2024/03/10 05:24:18;;;;;;;19.42;8.73;;;7.40;99.90;;;;;;4895049;29;20128;-76
2024/03/10 05:26:49;;;;;;;19.52;9.55;;;7.40;99.90;;;;;;4891714;29;20044;-77
2024/03/10 05:29:20;;;;;;;18.92;9.02;;;7.40;99.90;;;;;;4888654;29;20041;-79
2024/03/10 05:31:50;;;;;;;17.38;7.88;;;7.40;99.90;;;;;;4901341;29;20076;-78
2024/03/10 05:34:19;;;;;;;18.95;8.70;;;7.50;99.90;;;;;;4893466;29;20040;-76
2024/03/10 05:36:48;;;;;;;22.58;9.23;;;7.50;99.90;;;;;;4885536;29;20418;-76
2024/03/10 05:39:18;;;;;;;17.67;7.72;;;7.50;99.90;;;;;;4901172;29;20072;-78
2024/03/10 05:41:47;;;;;;;17.45;7.38;;;7.50;99.90;;;;;;4891137;29;20053;-77
2024/03/10 05:44:15;;;;;;;21.83;9.73;;;7.50;99.90;;;;;;4894534;29;20516;-77
2024/03/10 05:46:46;;;;;;;19.48;8.07;;;7.50;99.90;;;;;;4903373;29;20081;-79
2024/03/10 05:49:14;;;;;;;19.55;9.13;;;7.50;99.90;;;;;;4890989;29;20120;-79
2024/03/10 05:51:45;;;;;;;20.67;9.48;;;7.50;99.90;;;;;;4909351;29;20048;-77
2024/03/10 05:54:13;;;;;;;19.50;9.77;;;7.50;99.90;;;;;;4907591;29;20056;-78
2024/03/10 05:56:42;;;;;;;20.13;9.10;;;7.50;99.90;;;;;;4908381;29;20062;-78
2024/03/10 05:59:11;;;;;;;20.35;9.38;;;7.50;99.90;;;;;;4904815;29;20505;-77
2024/03/10 06:01:39;;;;;;;20.60;9.43;;;7.50;99.90;;;;;;4893800;29;20119;-79
2024/03/10 06:04:09;;;;;;;20.27;9.57;;;7.60;99.90;;;;;;4893344;29;20045;-77
2024/03/10 06:06:38;;;;;;;18.33;7.80;;;7.60;99.90;;;;;;4895462;29;20072;-78
2024/03/10 06:09:07;;;;;;;19.27;9.52;;;7.70;99.90;;;;;;4901538;29;20049;-79
2024/03/10 06:11:36;;;;;;;22.15;9.82;;;7.60;99.90;;;;;;4910184;29;20056;-81
2024/03/10 06:14:04;;;;;;;19.90;9.20;;;7.60;99.90;;;;;;4908787;29;20049;-77
2024/03/10 06:16:33;;;;;;;19.08;8.48;;;7.60;99.90;;;;;;4886100;29;20568;-81
2024/03/10 06:27:24;;;;;;;18.95;8.23;;;7.70;99.90;;;;;;4874719;29;20057;-77
2024/03/10 06:29:52;;;;;;;21.58;8.90;;;7.60;99.90;;;;;;4893847;29;20568;-80
2024/03/10 06:32:21;;;;;;;20.88;9.35;;;7.60;99.90;;;;;;4888082;29;20488;-79
2024/03/10 06:34:49;;;;;;;22.50;9.63;;;7.60;99.90;;;;;;4903911;29;20072;-79
2024/03/10 06:37:20;;;;;;;19.92;8.70;;;7.60;99.90;;;;;;4889427;29;20049;-80
2024/03/10 06:39:48;;;;;;;16.80;8.10;;;7.60;99.90;;;;;;4905803;29;20143;-78
2024/03/10 06:42:17;;;;;;;23.65;9.77;;;7.60;99.90;;;;;;4891085;29;20504;-78
2024/03/10 06:44:45;;;;;;;23.08;10.10;;;7.60;99.90;;;;;;4904301;29;20101;-78
2024/03/10 06:47:15;;;;;;;22.92;10.07;;;7.60;99.90;;;;;;4892515;29;20041;-81
2024/03/10 06:49:44;;;;;;;22.17;9.70;;;7.60;99.90;;;;;;4907220;29;20059;-83
2024/03/10 06:52:13;;;;;;;23.60;9.77;;;7.70;99.90;;;;;;4894334;29;20041;-83
2024/03/10 06:54:44;;;;;;;26.02;11.13;;;7.80;99.90;;;;;;4884665;29;20065;-79
2024/03/10 06:57:13;;;;;;;24.20;10.07;;;7.80;99.90;;;;;;4905359;29;20080;-78
2024/03/10 06:59:44;;;;;;;24.70;11.90;;;7.70;99.90;;;;;;4890297;29;20067;-80
2024/03/10 07:02:12;;;;;;;26.83;11.65;;;7.80;99.90;;;;;;4901144;29;20488;-82
2024/03/10 07:04:45;;;;;;;25.58;11.65;;;7.80;99.90;;;;;;4893200;29;20040;-80
2024/03/10 07:07:14;;;;;;;25.10;10.98;;;7.80;99.90;;;;;;4906080;29;20506;-79
2024/03/10 07:09:51;;;;;;;25.83;13.05;;;7.80;99.90;;;;;;4898243;29;20146;-79
2024/03/10 07:12:28;;;;;;;26.13;11.95;;;7.80;99.90;;;;;;4891994;29;20068;-81
2024/03/10 07:14:57;;;;;;;23.45;11.63;;;7.90;99.90;;;;;;4891986;29;20045;-79
2024/03/10 07:17:27;;;;;;;25.98;11.70;;;7.90;99.90;;;;;;4926357;29;20071;-79
2024/03/10 07:19:56;;;;;;;28.25;11.90;;;7.90;99.90;;;;;;4928346;29;20063;-82
2024/03/10 07:22:25;;;;;;;26.63;11.95;;;8.00;99.90;;;;;;4926103;29;20133;-81
2024/03/10 07:24:55;;;;;;;25.27;11.10;;;8.00;99.90;;;;;;4926408;29;20067;-78
2024/03/10 07:27:24;;;;;;;27.20;12.90;;;8.10;99.90;;;;;;4921457;29;20052;-78
2024/03/10 07:29:54;;;;;;;28.25;12.75;;;8.10;99.90;;;;;;4912011;29;20142;-81
2024/03/10 07:32:23;;;;;;;24.95;11.45;;;8.10;99.90;;;;;;4925513;29;20071;-78
2024/03/10 07:34:51;;;;;;;23.50;10.48;;;8.20;99.90;;;;;;4916038;29;20035;-82
2024/03/10 07:37:21;;;;;;;25.35;10.15;;;8.30;99.90;;;;;;4912638;29;20118;-79
2024/03/10 07:39:49;;;;;;;22.65;10.02;;;8.30;99.90;;;;;;4929845;29;20055;-79
2024/03/10 07:42:19;;;;;;;26.90;11.75;;;8.30;99.90;;;;;;4908649;29;20107;-78
2024/03/10 07:44:48;;;;;;;26.88;11.93;;;8.40;99.90;;;;;;4922356;29;20051;-79
2024/03/10 07:47:16;;;;;;;27.40;12.45;;;8.50;99.90;;;;;;4925500;29;20415;-79
2024/03/10 07:49:45;;;;;;;24.48;11.70;;;8.60;99.90;;;;;;4903266;29;20191;-79
2024/03/10 07:52:14;;;;;;;25.08;11.50;;;8.60;99.90;;;;;;4889536;29;20049;-80
2024/03/10 07:54:42;;;;;;;24.40;11.60;;;8.70;99.90;;;;;;4888802;29;20053;-80
2024/03/10 07:57:11;;;;;;;25.60;11.07;;;8.80;99.90;;;;;;4901221;29;20557;-78
2024/03/10 07:59:41;;;;;;;27.83;12.13;;;8.80;99.90;;;;;;4902825;29;20139;-78
2024/03/10 08:02:10;;;;;;;25.83;11.70;;;8.80;99.90;;;;;;4888524;29;20049;-79
2024/03/10 08:04:40;;;;;;;28.25;12.90;;;8.90;99.90;;;;;;4892115;29;20459;-78
2024/03/10 08:07:10;;;;;;;27.48;11.88;;;9.00;99.90;;;;;;4909763;29;20060;-77
2024/03/10 08:09:38;;;;;;;22.70;10.23;;;9.00;99.90;;;;;;4895835;29;20448;-79
2024/03/10 08:12:07;;;;;;;25.00;11.77;;;9.10;99.90;;;;;;4886405;29;20064;-82
2024/03/10 08:14:38;;;;;;;24.42;10.57;;;9.10;99.90;;;;;;4899842;29;20120;-80
2024/03/10 08:17:08;;;;;;;25.33;11.63;;;8.90;99.90;;;;;;4888147;29;20405;-80
2024/03/10 08:19:36;;;;;;;24.05;12.00;;;8.90;99.90;;;;;;4900638;29;20068;-80
2024/03/10 08:22:05;;;;;;;22.70;10.57;;;8.90;99.90;;;;;;4903740;29;20049;-79
2024/03/10 08:24:34;;;;;;;22.25;10.05;;;8.90;99.90;;;;;;4886648;29;20465;-81
2024/03/10 08:27:02;;;;;;;22.40;11.43;;;9.00;99.90;;;;;;4887564;29;20051;-78
2024/03/10 08:29:31;;;;;;;24.65;12.48;;;9.00;99.90;;;;;;4887174;29;20149;-79
2024/03/10 08:32:04;;;;;;;21.45;10.15;;;9.10;99.90;;;;;;4896362;29;20629;-79
2024/03/10 08:34:34;;;;;;;23.58;12.40;;;9.40;99.90;;;;;;4880955;29;20049;-79
2024/03/10 08:37:02;;;;;;;27.42;11.15;;;9.70;99.90;;;;;;4901128;29;20056;-78
2024/03/10 08:39:31;;;;;;;27.75;11.27;;;9.60;99.90;;;;;;4885844;29;20044;-84
2024/03/10 08:42:00;;;;;;;18.75;9.32;;;9.60;99.90;;;;;;4892655;29;20059;-81
2024/03/10 08:44:28;;;;;;;21.77;10.82;;;9.60;99.90;;;;;;4886193;29;20053;-82
2024/03/10 08:46:57;;;;;;;26.73;12.45;;;9.80;99.90;;;;;;4887727;29;20360;-77
2024/03/10 08:49:25;;;;;;;25.60;10.82;;;9.80;99.90;;;;;;4905655;29;20135;-79
2024/03/10 08:51:55;;;;;;;26.95;12.55;;;10.10;99.90;;;;;;4888412;29;20136;-82
2024/03/10 08:54:23;;;;;;;28.15;12.75;;;10.20;99.90;;;;;;4889745;29;20064;-78
2024/03/10 08:56:52;;;;;;;26.90;12.55;;;10.30;99.90;;;;;;4903694;29;20059;-86
2024/03/10 08:59:21;;;;;;;23.52;11.23;;;10.50;99.90;;;;;;4887824;29;20116;-80
2024/03/10 09:01:51;;;;;;;25.98;11.57;;;10.60;99.90;;;;;;4891640;29;20462;-84
2024/03/10 09:04:19;;;;;;;26.15;12.02;;;10.70;99.90;;;;;;4887111;29;20512;-84
2024/03/10 09:06:49;;;;;;;23.25;12.38;;;10.70;99.90;;;;;;4884964;29;20033;-77
2024/03/10 09:09:19;;;;;;;24.08;10.15;;;10.90;99.90;;;;;;4902784;29;20044;-77
2024/03/10 09:11:49;;;;;;;25.85;12.25;;;11.00;99.90;;;;;;4880889;29;20088;-84
2024/03/10 09:14:18;;;;;;;18.83;9.20;;;11.00;99.90;;;;;;4893207;29;20048;-78
2024/03/10 09:16:48;;;;;;;25.10;11.77;;;11.10;99.90;;;;;;4884903;29;20062;-79
2024/03/10 09:19:17;;;;;;;24.00;10.63;;;11.20;99.90;;;;;;4905321;29;20108;-78
2024/03/10 09:21:45;;;;;;;28.23;12.52;;;11.30;99.90;;;;;;4902507;29;20055;-80
2024/03/10 09:24:14;;;;;;;22.90;9.80;;;11.30;99.90;;;;;;4891128;29;20084;-79
2024/03/10 09:26:46;;;;;;;21.25;9.68;;;11.40;99.90;;;;;;4897815;29;20051;-89
2024/03/10 09:29:17;;;;;;;23.02;9.60;;;11.50;99.90;;;;;;4905362;29;20045;-82
2024/03/10 09:31:46;;;;;;;25.15;11.40;;;11.70;99.90;;;;;;4879476;29;20504;-79
2024/03/10 09:34:15;;;;;;;16.85;7.85;;;11.70;99.90;;;;;;4900391;29;20052;-81
2024/03/10 09:36:43;;;;;;;21.00;10.75;;;11.90;99.90;;;;;;4900161;29;20140;-80
2024/03/10 09:39:12;;;;;;;23.33;11.63;;;12.00;99.90;;;;;;4888386;29;20501;-83
2024/03/10 09:41:42;;;;;;;23.23;10.70;;;12.10;99.90;;;;;;4901213;29;20060;-82
2024/03/10 09:44:17;;;;;;;26.92;11.88;;;12.10;99.90;;;;;;4895608;29;20056;-80
2024/03/10 09:46:49;;;;;;;24.38;10.55;;;12.00;99.90;;;;;;4901031;29;20049;-79
2024/03/10 09:49:19;;;;;;;25.02;10.38;;;12.00;99.90;;;;;;4887606;29;20060;-80
2024/03/10 09:51:49;;;;;;;24.75;12.18;;;12.20;99.90;;;;;;4884987;29;20497;-81
2024/03/10 09:54:19;;;;;;;24.55;11.48;;;12.30;99.90;;;;;;4902747;29;20059;-83
2024/03/10 09:56:50;;;;;;;22.92;10.40;;;12.10;99.90;;;;;;4884267;29;20442;-81
2024/03/10 09:59:24;;;;;;;20.90;10.70;;;12.10;99.90;;;;;;4885745;29;20620;-80
2024/03/10 10:01:54;;;;;;;24.25;11.65;;;12.20;99.90;;;;;;4882212;29;20132;-82
2024/03/10 10:04:28;;;;;;;25.90;10.80;;;12.10;99.90;;;;;;4899297;29;20118;-80
2024/03/10 10:06:57;;;;;;;17.80;8.15;;;12.20;99.90;;;;;;4902079;29;20053;-78
2024/03/10 10:09:27;;;;;;;22.40;10.18;;;12.20;99.90;;;;;;4898540;29;20084;-79
2024/03/10 10:11:57;;;;;;;22.35;10.85;;;12.30;99.90;;;;;;4900825;29;20048;-82
2024/03/10 10:14:29;;;;;;;22.33;11.05;;;12.20;99.90;;;;;;4884399;29;20052;-82
2024/03/10 10:16:59;;;;;;;21.80;10.82;;;12.20;99.90;;;;;;4886192;29;20049;-81
2024/03/10 10:19:29;;;;;;;21.55;11.02;;;12.10;99.90;;;;;;4886737;29;20084;-79
2024/03/10 10:21:59;;;;;;;21.25;10.10;;;12.10;99.90;;;;;;4902573;29;20044;-82
2024/03/10 10:24:27;;;;;;;22.58;11.18;;;12.20;99.90;;;;;;4905750;29;20071;-80
2024/03/10 10:26:59;;;;;;;21.98;10.00;;;12.20;99.90;;;;;;4901612;29;20456;-78
2024/03/10 10:29:30;;;;;;;22.33;10.75;;;12.30;99.90;;;;;;4885816;29;20055;-81
2024/03/10 10:32:00;;;;;;;22.10;11.00;;;12.40;99.90;;;;;;4886057;29;20049;-82
2024/03/10 10:34:29;;;;;;;22.00;10.30;;;12.30;99.90;;;;;;4900231;29;20456;-79
2024/03/10 10:37:00;;;;;;;24.70;10.90;;;12.30;99.90;;;;;;4902181;29;20049;-80
2024/03/10 10:39:29;;;;;;;20.25;9.32;;;12.20;99.90;;;;;;4891301;29;20504;-77
2024/03/10 10:41:58;;;;;;;17.15;9.70;;;12.20;99.90;;;;;;4892381;29;20101;-78
2024/03/10 10:44:31;;;;;;;22.40;11.00;;;12.40;99.90;;;;;;4889756;29;20052;-79
2024/03/10 10:47:01;;;;;;;18.52;9.30;;;12.70;99.90;;;;;;4903851;29;20155;-80
2024/03/10 10:49:31;;;;;;;17.73;7.38;;;13.00;99.90;;;;;;4888163;29;20053;-79
2024/03/10 10:52:02;;;;;;;22.48;10.52;;;13.30;99.90;;;;;;4885247;29;20055;-80
2024/03/10 10:54:30;;;;;;;19.85;9.77;;;13.40;99.90;;;;;;4891369;29;20139;-80
2024/03/10 10:57:00;;;;;;;21.52;9.88;;;13.40;99.90;;;;;;4888266;29;20065;-79
2024/03/10 10:59:29;;;;;;;19.63;9.55;;;13.30;99.90;;;;;;4904508;29;20060;-81
2024/03/10 11:02:16;;;;;;;22.95;10.27;;;13.10;99.90;;;;;;4892236;29;20531;-80
2024/03/10 11:04:45;;;;;;;15.40;7.25;;;13.00;99.90;;;;;;4908582;29;20520;-77
2024/03/10 11:07:14;;;;;;;20.58;8.90;;;13.30;99.90;;;;;;4886326;29;20101;-80
2024/03/10 11:09:43;;;;;;;20.25;9.82;;;13.60;99.90;;;;;;4888621;29;20477;-77
2024/03/10 11:12:19;;;;;;;14.10;6.45;;;13.70;99.90;;;;;;4903637;29;20109;-77
2024/03/10 11:14:50;;;;;;;17.58;8.02;;;13.70;99.90;;;;;;4887749;29;20140;-79
2024/03/10 11:17:23;;;;;;;18.30;7.25;;;13.70;99.90;;;;;;4890634;29;20048;-77
2024/03/10 11:19:53;;;;;;;19.00;10.00;;;13.60;99.90;;;;;;4890780;29;20058;-81
2024/03/10 11:22:27;;;;;;;19.35;9.00;;;13.50;99.90;;;;;;4885726;29;20053;-86
2024/03/10 11:25:08;;;;;;;17.60;8.65;;;13.50;99.90;;;;;;4903545;29;20060;-78
2024/03/10 11:27:42;;;;;;;13.40;6.78;;;13.50;99.90;;;;;;4885804;29;20064;-77
2024/03/10 11:30:47;;;;;;;18.30;9.25;;;13.60;99.90;;;;;;4905319;29;20556;-77
2024/03/10 11:33:23;;;;;;;18.00;8.98;;;13.70;99.90;;;;;;4901202;29;20063;-80
2024/03/10 11:35:53;;;;;;;20.00;7.85;;;13.70;99.90;;;;;;4886846;29;20390;-76
2024/03/10 11:38:22;;;;;;;20.98;9.15;;;13.80;99.90;;;;;;4901416;29;20521;-78
2024/03/10 11:41:01;;;;;;;19.08;8.63;;;13.80;99.90;;;;;;4904288;29;20053;-79
2024/03/10 11:43:30;;;;;;;19.50;8.60;;;13.70;99.90;;;;;;4894811;29;20076;-76
2024/03/10 11:45:58;;;;;;;17.25;9.00;;;13.70;99.90;;;;;;4884341;29;20101;-78
2024/03/10 11:48:29;;;;;;;15.57;7.95;;;13.60;99.90;;;;;;4888065;29;20578;-78
2024/03/10 11:50:58;;;;;;;16.50;8.77;;;13.70;99.90;;;;;;4904985;29;20056;-76
2024/03/10 11:53:28;;;;;;;18.70;8.25;;;13.70;99.90;;;;;;4889128;29;20045;-75
2024/03/10 11:56:00;;;;;;;18.98;7.72;;;13.70;99.90;;;;;;4891111;29;20052;-75
2024/03/10 11:58:30;;;;;;;18.25;8.18;;;13.70;99.90;;;;;;4901227;29;20147;-76
2024/03/10 12:01:04;;;;;;;12.63;5.05;;;13.80;99.90;;;;;;4888572;29;20450;-76
2024/03/10 12:03:36;;;;;;;17.00;8.43;;;13.90;99.90;;;;;;4900415;29;20501;-76
2024/03/10 12:06:05;;;;;;;19.02;8.45;;;14.00;99.90;;;;;;4906143;29;20045;-76
2024/03/10 12:08:34;;;;;;;19.15;8.93;;;14.10;99.90;;;;;;4900842;29;20042;-76
2024/03/10 12:11:04;;;;;;;20.95;9.65;;;14.10;99.90;;;;;;4902509;29;20076;-77
2024/03/10 12:13:33;;;;;;;21.33;10.40;;;14.10;99.90;;;;;;4904966;29;20143;-76
2024/03/10 12:16:06;;;;;;;68.93;32.90;;;14.00;99.90;;;;;;4885605;29;20048;-76
2024/03/10 12:18:36;;;;;;;25.90;14.55;;;14.00;99.90;;;;;;4902003;29;20052;-76
2024/03/10 12:21:07;;;;;;;22.05;11.93;;;14.10;99.90;;;;;;4891370;29;20203;-77
2024/03/10 12:23:36;;;;;;;18.52;11.27;;;14.20;99.90;;;;;;4890949;29;20048;-80
2024/03/10 12:26:09;;;;;;;17.73;9.75;;;14.40;99.90;;;;;;4898628;29;20072;-75
2024/03/10 12:28:38;;;;;;;13.93;7.65;;;14.60;99.90;;;;;;4888554;29;20049;-74
2024/03/10 12:31:12;;;;;;;17.58;9.38;;;14.60;99.90;;;;;;4888435;29;20049;-79
2024/03/10 12:33:44;;;;;;;23.48;11.38;;;14.50;99.90;;;;;;4903247;29;20081;-77
2024/03/10 12:36:12;;;;;;;19.92;8.40;;;14.40;99.90;;;;;;4904418;29;20080;-74
2024/03/10 12:38:42;;;;;;;15.88;7.38;;;14.40;99.90;;;;;;4885483;29;20076;-74
2024/03/10 12:41:12;;;;;;;17.83;7.57;;;14.30;99.90;;;;;;4889902;29;20041;-77
2024/03/10 12:43:41;;;;;;;22.58;9.73;;;14.20;99.90;;;;;;4903187;29;20464;-73
2024/03/10 12:46:15;;;;;;;18.10;8.10;;;14.20;99.90;;;;;;4888590;29;20045;-74
2024/03/10 12:48:45;;;;;;;17.50;7.32;;;14.20;99.90;;;;;;4900197;29;20056;-73
2024/03/10 12:51:14;;;;;;;15.00;6.75;;;14.20;99.90;;;;;;4889276;29;20057;-76
2024/03/10 12:53:42;;;;;;;21.92;12.32;;;14.20;99.90;;;;;;4885450;29;20053;-77
2024/03/10 12:56:12;;;;;;;14.25;8.48;;;14.10;99.90;;;;;;4898242;29;20060;-75
2024/03/10 12:58:43;;;;;;;13.25;6.38;;;14.10;99.90;;;;;;4896971;29;20102;-76
2024/03/10 13:01:11;;;;;;;13.30;5.93;;;14.10;99.90;;;;;;4897877;29;20145;-73
2024/03/10 13:03:40;;;;;;;11.80;5.72;;;14.10;99.90;;;;;;4900912;29;20522;-76
2024/03/10 13:06:10;;;;;;;12.85;5.68;;;14.10;99.90;;;;;;4885899;29;20161;-79
2024/03/10 13:08:38;;;;;;;10.88;5.13;;;14.10;99.90;;;;;;4885454;29;20055;-73
2024/03/10 13:11:07;;;;;;;10.98;5.75;;;14.20;99.90;;;;;;4884986;29;20048;-74
2024/03/10 13:13:36;;;;;;;11.05;5.07;;;14.10;99.90;;;;;;4882904;29;20493;-74
2024/03/10 13:16:05;;;;;;;9.32;4.70;;;14.10;99.90;;;;;;4888958;29;20588;-76